Portada
METAR-TAF:

METAR-TAF

Aeropuertos :

Aeropuerto Internacional de Riga

Riga, Letonia

latitud: 56-55N, longitud: 023-58E, altitud: 10 m

Observación

El informe se hizo hace 14 minutos, a las 16:20 UTC
Viento 14 kt del sur-sureste
Temperatura -2°C
Humedad 86%
Presión 1015 hPa
Visibilidad 10 km o más
sin nubes por debajo de 1500 m y sin presencia de cumulonimbus.

METAR: EVRA 111620Z 16014KT CAVOK M02/M04 Q1015 R18/190095 NOSIG

Hora: 18:34 (16:34 UTC)

Pronóstico

El informe se hizo hace 2 horas y 33 minutos, a las 14:01 UTC
Pronóstico válido del 11 a las 15 UTC al 12 a las 15 UTC
Viento 10 kt del sur
Visibilidad 10 km o más
sin nubes por debajo de 1500 m y sin presencia de cumulonimbus.
Temporalmente
del 12 a las 05 UTC al 12 a las 15 UTC
Cielo nuboso a una altura de 1000 ft

TAF: EVRA 111401Z 1115/1215 17010KT CAVOK TEMPO 1205/1215 BKN010

Observaciones y pronósticos meteorológicos de más de 4000 aeropuertos (mensajes METAR y TAF).

Los puntos amarillos y rojos representan las estaciones disponibles.

Ponga el ratón en el punto deseado para ver el nombre de la estación.

Haga clic para ver las observaciones y los pronósticos meteorológicos.

Para cambiar el mapa : haga clic en los botones verdes con una cruz de color negro para hacer un zoom, en el botón verde con un guión para alejar o en las flechas verdes para mapas adyacentes.


METAR-TAF: